Cool Ridge, WV (25825)

5:28 AM EDT on March 30, 2015 (GMT -0400)
Cool Ridge | | Change Station
CLOSE
Current Station
Personal Weather Station
Location: Raleigh Co., WV
Elevation: 2965 ft
Nearby Weather Stations

Elev 2965 ft 37.66 °N, 81.09 °W | Updated 17 seconds ago

Rain
Rain
39.5 °F
Feels Like 36 °F
N
5.0
Wind Variable Wind from WSW

Today
High -- | Low -- °F
--% Chance of Precip.
Yesterday
High -- | Low -- °F
Precip. -- in
7:13 AM 7:45 PM
Waxing Gibbous, 78% visible
Pressure 29.96 in
Visibility 5.0 miles
Clouds Few 700 ft
Overcast 1400 ft
Windchill 36 °F
Dew Point 38 °F
Humidity 95%
Rainfall 0.09 in
Snow Depth Not available.
UV 0 out of 12
Pollen 7.70 out of 12
Air Quality Not available.
Flu Activity Not available.
SPECI KBKW 300917Z AUTO 25006KT 5SM -RA BR FEW007 OVC014 04/02 A2996 RMK AO2 P0001 T00390022 $

More Conditions Fewer Conditions

Pressure 29.96 in
Visibility 5.0 miles
Clouds Few 700 ft
Overcast 1400 ft
Windchill 36 °F
Dew Point 38 °F
Humidity 95%
Rainfall 0.09 in
Snow Depth Not available.
UV 0 out of 12
Pollen 7.70 out of 12
Air Quality Not available.
Flu Activity Not available.
SPECI KBKW 300917Z AUTO 25006KT 5SM -RA BR FEW007 OVC014 04/02 A2996 RMK AO2 P0001 T00390022 $

More Conditions Fewer Conditions

10-Day Weather Forecast

Almanac

Astronomy

Mar. 30, 2015 Rise Set
Actual Time
Civil Twilight
Nautical Twilight
Astronomical Twilight
Moon
Length of Visible Light
Length of Day
Tomorrow will be .
, % of the Moon is Illuminated

Today's Extremes

State Highs State Lows

Community

WunderPhotos

Upload Photos

1,809,452 photos uploaded!

WunderBlogs® & News

Nearby

Air Quality

  Air Quality AQ Index Pollutant
Not available.

Snow Depth

Station Depth Elevation

Earthquake Activity

City Distance Mag. Time & Date
Minimum magnitude displayed is 2.5.

Coastal Water Temperatures

Place Temperature

Stations

Nearby Weather Stations

Station Location Temp. Windchill Dew Point Humidity Wind Precip. Elev Updated Type